Time;durP1;ratioP1;P1;durP2;ratioP2;P2;SDS_P1;SDS_P2;PMS_P1;PMS_P2;Temp;Humidity;BMP_temperature;BMP_pressure;BME280_temperature;BME280_humidity;BME280_pressure;Samples;Min_cycle;Max_cycle;Signal;HPM_P1;HPM_P2
2021/11/30 00:03:17;;;;;;;7.72;4.13;;;;;;;1.12;82.65;100631.28;4976123;28;20508;-50
2021/11/30 00:05:45;;;;;;;6.93;4.00;;;;;;;1.15;82.52;100630.91;4978719;28;20049;-51
2021/11/30 00:08:12;;;;;;;8.38;4.65;;;;;;;1.18;82.36;100620.78;4979384;28;20031;-50
2021/11/30 00:10:46;;;;;;;6.88;4.18;;;;;;;1.21;82.40;100622.22;4980353;28;20407;-49
2021/11/30 00:13:13;;;;;;;;;;;;;;;1.10;82.53;100623.56;4979456;28;20030;-49
2021/11/30 00:15:39;;;;;;;8.43;4.05;;;;;;;1.21;82.40;100611.66;4976592;28;19921;-49
2021/11/30 00:18:04;;;;;;;7.63;4.00;;;;;;;1.26;82.43;100608.44;4976133;28;20488;-49
2021/11/30 00:20:30;;;;;;;10.05;4.03;;;;;;;1.27;82.12;100602.19;4979993;28;20480;-49
2021/11/30 00:22:55;;;;;;;10.18;4.78;;;;;;;1.28;82.09;100588.81;4978766;28;20045;-49
2021/11/30 00:25:21;;;;;;;5.88;4.05;;;;;;;1.30;82.19;100586.78;4980649;28;20436;-49
2021/11/30 00:27:46;;;;;;;6.50;3.92;;;;;;;1.32;82.17;100584.78;4980337;28;20030;-50
2021/11/30 00:30:12;;;;;;;7.47;3.97;;;;;;;1.35;82.14;100568.53;4979946;28;20113;-49
2021/11/30 00:32:37;;;;;;;9.10;4.05;;;;;;;1.38;82.21;100573.44;4978127;28;20054;-52
2021/11/30 00:35:03;;;;;;;7.82;4.15;;;;;;;1.42;82.00;100579.13;4978839;28;20560;-49
2021/11/30 00:37:29;;;;;;;7.57;3.78;;;;;;;1.45;81.94;100565.59;4981381;28;20061;-49
2021/11/30 00:39:54;;;;;;;6.57;3.58;;;;;;;1.45;81.91;100568.22;4976443;28;20041;-49
2021/11/30 00:42:23;;;;;;;5.70;3.38;;;;;;;1.46;81.65;100575.13;4976768;28;20531;-51
2021/11/30 00:44:50;;;;;;;8.65;3.85;;;;;;;1.50;81.80;100581.66;4980042;28;20057;-50
2021/11/30 00:47:19;;;;;;;6.47;4.00;;;;;;;1.52;81.86;100571.72;4978901;28;20558;-49
2021/11/30 00:49:47;;;;;;;7.75;4.35;;;;;;;1.52;81.74;100575.16;4980176;28;20052;-52
2021/11/30 00:52:14;;;;;;;7.95;4.30;;;;;;;1.54;81.57;100574.16;4979886;28;20581;-49
2021/11/30 00:54:41;;;;;;;9.27;4.13;;;;;;;1.55;81.78;100576.59;4978731;28;20034;-51
2021/11/30 00:57:06;;;;;;;6.95;3.65;;;;;;;1.57;81.67;100569.28;4976964;28;20088;-50
2021/11/30 00:59:32;;;;;;;7.50;3.78;;;;;;;1.56;81.79;100569.50;4980482;28;20082;-50
2021/11/30 01:01:59;;;;;;;7.85;4.05;;;;;;;1.57;81.71;100571.13;4975933;28;20030;-49
2021/11/30 01:04:25;;;;;;;8.07;3.78;;;;;;;1.58;81.83;100570.13;4980369;28;20038;-49
2021/11/30 01:06:51;;;;;;;6.80;4.13;;;;;;;1.60;81.96;100576.00;4980764;28;20737;-52
2021/11/30 01:09:17;;;;;;;7.13;4.18;;;;;;;1.59;82.02;100569.09;4978520;28;20027;-49
2021/11/30 01:11:43;;;;;;;7.40;3.78;;;;;;;1.61;82.05;100567.09;4976892;28;20030;-52
2021/11/30 01:14:09;;;;;;;8.57;4.75;;;;;;;1.59;81.97;100558.53;4978209;28;20030;-50
2021/11/30 01:16:35;;;;;;;8.57;4.13;;;;;;;1.59;81.79;100559.34;4980699;28;20038;-49
2021/11/30 01:19:03;;;;;;;7.20;4.22;;;;;;;1.58;82.19;100557.72;4977161;28;20081;-49
2021/11/30 01:21:29;;;;;;;7.47;4.05;;;;;;;1.58;82.25;100554.28;4978955;28;20121;-49
2021/11/30 01:23:55;;;;;;;7.20;4.45;;;;;;;1.60;82.24;100539.03;4976750;28;20066;-51
2021/11/30 01:26:20;;;;;;;9.18;4.70;;;;;;;1.63;82.35;100549.25;4973693;28;20062;-49
2021/11/30 01:28:46;;;;;;;8.48;4.53;;;;;;;1.64;82.33;100540.31;4977870;28;20077;-50
2021/11/30 01:31:11;;;;;;;9.05;5.65;;;;;;;1.66;82.10;100543.56;4972837;28;20034;-50
2021/11/30 01:33:37;;;;;;;9.13;4.97;;;;;;;1.67;82.13;100543.38;4977761;28;20033;-50
2021/11/30 01:36:04;;;;;;;8.02;5.00;;;;;;;1.65;82.32;100547.22;4977796;28;20062;-51
2021/11/30 01:38:31;;;;;;;7.63;4.88;;;;;;;1.64;82.29;100540.31;4979107;28;20034;-51
2021/11/30 01:41:00;;;;;;;8.23;4.70;;;;;;;1.65;82.43;100534.00;4975484;28;20250;-50
2021/11/30 01:43:28;;;;;;;10.50;4.97;;;;;;;1.65;82.63;100541.94;4980764;28;20027;-51
2021/11/30 01:46:00;;;;;;;11.27;5.18;;;;;;;1.65;82.62;100521.63;4973140;28;20031;-50
2021/11/30 01:50:54;;;;;;;8.05;4.97;;;;;;;1.65;82.65;100510.25;4973214;28;20314;-51
2021/11/30 01:53:20;;;;;;;11.48;5.70;;;;;;;1.65;82.80;100508.41;4979688;28;20120;-49
2021/11/30 01:55:46;;;;;;;8.30;4.82;;;;;;;1.67;82.63;100500.28;4975034;28;20068;-52
2021/11/30 01:58:13;;;;;;;10.13;5.25;;;;;;;1.68;82.91;100499.28;4974201;28;20031;-49
2021/11/30 02:00:41;;;;;;;8.63;5.22;;;;;;;1.69;82.85;100506.19;4979022;28;20026;-49
2021/11/30 02:03:07;;;;;;;9.23;5.10;;;;;;;1.69;83.05;100500.91;4976571;28;20030;-50
2021/11/30 02:05:38;;;;;;;12.20;5.63;;;;;;;1.68;82.87;100492.19;4975610;28;20486;-51
2021/11/30 02:08:05;;;;;;;8.77;4.97;;;;;;;1.69;82.95;100493.81;4976601;28;20308;-49
2021/11/30 02:10:32;;;;;;;9.98;6.20;;;;;;;1.70;83.01;100491.97;4975702;28;20484;-52
2021/11/30 02:12:58;;;;;;;9.55;5.18;;;;;;;1.70;83.08;100476.94;4978701;28;20027;-49
2021/11/30 02:15:26;;;;;;;9.48;5.15;;;;;;;1.72;83.40;100482.03;4979546;28;20022;-49
2021/11/30 02:17:53;;;;;;;12.20;5.25;;;;;;;1.75;83.11;100471.06;4980188;28;20473;-51
2021/11/30 02:20:19;;;;;;;9.00;5.40;;;;;;;1.76;83.11;100475.34;4981618;28;20026;-51
2021/11/30 02:22:53;;;;;;;8.52;5.03;;;;;;;1.77;82.95;100467.22;4979443;28;20033;-52
2021/11/30 02:25:19;;;;;;;11.13;4.97;;;;;;;1.80;83.22;100480.06;4979625;28;20046;-50
2021/11/30 02:27:44;;;;;;;10.25;5.22;;;;;;;1.81;83.04;100472.94;4981043;28;20031;-52
2021/11/30 02:30:10;;;;;;;8.93;5.35;;;;;;;1.83;83.10;100470.91;4982715;28;20030;-49
2021/11/30 02:32:35;;;;;;;9.80;5.07;;;;;;;1.84;83.02;100467.25;4979451;28;20189;-49
2021/11/30 02:35:01;;;;;;;9.38;5.50;;;;;;;1.87;82.99;100464.22;4980607;28;20030;-50
2021/11/30 02:37:29;;;;;;;11.70;5.30;;;;;;;1.88;82.95;100462.38;4980126;28;20058;-51
2021/11/30 02:39:54;;;;;;;11.20;5.80;;;;;;;1.89;83.19;100464.00;4979143;28;20461;-49
2021/11/30 02:42:20;;;;;;;9.45;5.50;;;;;;;1.89;83.08;100453.44;4982226;28;20037;-49
2021/11/30 02:44:46;;;;;;;11.70;6.07;;;;;;;1.91;83.14;100448.78;4976158;28;20038;-51
2021/11/30 02:47:13;;;;;;;10.73;6.07;;;;;;;1.92;83.01;100431.91;4979314;28;20042;-48
2021/11/30 02:49:42;;;;;;;11.85;6.15;;;;;;;1.93;83.25;100428.25;4980726;28;20034;-49
2021/11/30 02:52:11;;;;;;;12.02;5.95;;;;;;;1.95;82.96;100420.94;4981481;28;20066;-48
2021/11/30 02:54:44;;;;;;;11.32;6.05;;;;;;;1.97;83.12;100418.91;4977501;28;20121;-48
2021/11/30 02:57:13;;;;;;;11.27;5.50;;;;;;;1.98;83.04;100413.44;4992601;28;20022;-48
2021/11/30 02:59:42;;;;;;;11.70;5.90;;;;;;;1.97;83.13;100422.34;4979411;28;20023;-49
2021/11/30 03:02:19;;;;;;;12.80;6.30;;;;;;;1.97;83.04;100418.91;4980574;28;20030;-48
2021/11/30 03:04:47;;;;;;;11.68;6.03;;;;;;;1.99;83.00;100409.78;4979346;28;20030;-48
2021/11/30 03:07:16;;;;;;;10.68;5.88;;;;;;;2.00;83.00;100403.50;4982297;28;20042;-48
2021/11/30 03:09:42;;;;;;;13.68;6.22;;;;;;;2.00;83.13;100394.75;4981008;28;20402;-50
2021/11/30 03:12:09;;;;;;;11.80;5.65;;;;;;;2.01;83.12;100393.72;4981752;28;20499;-48
2021/11/30 03:14:35;;;;;;;15.02;7.35;;;;;;;2.00;83.10;100373.59;4982675;28;20293;-47
2021/11/30 03:17:01;;;;;;;12.63;6.82;;;;;;;2.01;83.25;100367.31;4977824;28;20057;-48
2021/11/30 03:19:28;;;;;;;15.45;7.43;;;;;;;2.04;83.09;100372.19;4980776;28;20130;-48
2021/11/30 03:21:55;;;;;;;15.40;6.82;;;;;;;2.05;83.05;100373.81;4975454;28;20032;-50
2021/11/30 03:24:20;;;;;;;11.65;6.50;;;;;;;2.05;83.03;100358.78;4981295;28;20503;-48
2021/11/30 03:26:46;;;;;;;14.30;6.65;;;;;;;2.07;83.05;100346.16;4978143;28;20038;-49
2021/11/30 03:29:12;;;;;;;12.00;6.40;;;;;;;2.08;83.03;100341.69;4982076;28;20034;-48
2021/11/30 03:34:10;;;;;;;12.68;6.75;;;;;;;2.09;82.95;100338.84;4987606;28;20032;-48
2021/11/30 03:36:36;;;;;;;12.95;6.00;;;;;;;2.10;83.13;100326.44;4980657;28;20104;-47
2021/11/30 03:39:08;;;;;;;15.77;6.72;;;;;;;2.08;82.94;100331.13;4978083;28;20045;-47
2021/11/30 03:41:34;;;;;;;12.40;6.38;;;;;;;2.10;82.90;100324.63;4980939;28;20022;-49
2021/11/30 03:44:01;;;;;;;13.95;6.97;;;;;;;2.10;82.91;100323.81;4976040;28;20197;-48
2021/11/30 03:46:27;;;;;;;11.13;6.72;;;;;;;2.10;82.86;100315.88;4982128;28;20031;-48
2021/11/30 03:48:53;;;;;;;11.68;6.43;;;;;;;2.07;83.08;100309.16;4977310;28;20105;-49
2021/11/30 03:51:19;;;;;;;11.27;6.32;;;;;;;2.07;83.10;100311.81;4977779;28;20159;-48
2021/11/30 03:53:45;;;;;;;13.30;6.57;;;;;;;2.08;83.01;100299.41;4973623;28;20045;-48
2021/11/30 03:56:10;;;;;;;12.75;5.93;;;;;;;2.10;83.10;100300.03;4977961;28;20296;-49
2021/11/30 03:58:36;;;;;;;11.30;6.13;;;;;;;2.09;83.04;100285.19;4979809;28;20026;-48
2021/11/30 04:01:01;;;;;;;13.98;6.32;;;;;;;2.08;83.13;100265.88;4978603;28;20904;-48
2021/11/30 04:03:30;;;;;;;15.18;6.63;;;;;;;2.10;83.16;100255.09;4978805;28;20080;-48
2021/11/30 04:05:56;;;;;;;12.65;6.85;;;;;;;2.10;83.22;100247.97;4979891;28;20084;-48
2021/11/30 04:08:21;;;;;;;12.90;6.45;;;;;;;2.09;83.33;100248.19;4980685;28;20034;-48
2021/11/30 04:10:47;;;;;;;15.38;7.38;;;;;;;2.09;83.26;100235.78;4979874;28;20105;-48
2021/11/30 04:13:13;;;;;;;15.45;6.75;;;;;;;2.10;83.42;100226.84;4977846;28;20036;-48
2021/11/30 04:15:38;;;;;;;14.88;7.30;;;;;;;2.10;83.29;100218.09;4977191;28;20161;-48
2021/11/30 04:18:04;;;;;;;13.27;6.88;;;;;;;2.11;83.27;100209.16;4981063;28;20030;-49
2021/11/30 04:20:30;;;;;;;15.50;7.50;;;;;;;2.11;83.46;100201.22;4979666;28;20022;-48
2021/11/30 04:22:55;;;;;;;15.32;7.82;;;;;;;2.12;83.52;100194.91;4975916;28;20433;-48
2021/11/30 04:25:21;;;;;;;16.13;7.93;;;;;;;2.12;83.57;100194.91;4979248;28;20030;-47
2021/11/30 04:27:47;;;;;;;14.15;8.43;;;;;;;2.13;83.74;100192.06;4979623;28;20440;-49
2021/11/30 04:30:12;;;;;;;14.15;8.10;;;;;;;2.13;83.56;100173.56;4975043;28;20029;-48
2021/11/30 04:32:39;;;;;;;13.90;7.55;;;;;;;2.12;83.63;100166.66;4980517;28;20033;-48
2021/11/30 04:35:06;;;;;;;17.83;7.95;;;;;;;2.14;83.64;100163.81;4978763;28;20065;-48
2021/11/30 04:37:31;;;;;;;14.98;7.70;;;;;;;2.15;83.61;100168.06;4975714;28;20461;-51
2021/11/30 04:39:57;;;;;;;15.27;7.32;;;;;;;2.15;83.63;100157.50;4975307;28;20066;-49
2021/11/30 04:42:26;;;;;;;16.13;7.65;;;;;;;2.16;83.66;100147.78;4975139;28;20030;-48
2021/11/30 04:45:01;;;;;;;18.83;7.88;;;;;;;2.15;83.74;100139.00;4978668;28;20552;-51
2021/11/30 04:47:31;;;;;;;15.90;8.57;;;;;;;2.15;83.65;100136.34;4975987;28;20366;-48
2021/11/30 04:49:59;;;;;;;20.20;8.70;;;;;;;2.15;83.68;100130.25;4977510;28;20022;-49
2021/11/30 04:52:24;;;;;;;17.52;8.25;;;;;;;2.12;83.96;100110.34;4977622;28;20034;-48
2021/11/30 04:54:50;;;;;;;16.00;8.57;;;;;;;2.12;83.97;100102.41;4980353;28;20034;-48
2021/11/30 04:57:16;;;;;;;18.90;10.27;;;;;;;2.13;84.20;100104.84;4974918;28;20026;-48
2021/11/30 04:59:41;;;;;;;18.85;9.18;;;;;;;2.11;83.98;100095.50;4979246;28;20110;-48
2021/11/30 05:02:07;;;;;;;20.17;9.40;;;;;;;2.11;84.26;100087.59;4976579;28;20125;-48
2021/11/30 05:04:35;;;;;;;21.73;9.48;;;;;;;2.11;84.20;100085.75;4980208;28;20034;-49
2021/11/30 05:07:00;;;;;;;17.15;8.95;;;;;;;2.11;84.09;100082.31;4973081;28;20244;-48
2021/11/30 05:09:26;;;;;;;20.83;9.35;;;;;;;2.11;84.26;100075.19;4978360;28;20030;-48
2021/11/30 05:11:51;;;;;;;20.25;8.65;;;;;;;2.11;84.36;100061.97;4980096;28;20346;-50
2021/11/30 05:14:17;;;;;;;19.13;9.80;;;;;;;2.11;84.52;100059.31;4978238;28;20026;-48
2021/11/30 05:16:42;;;;;;;25.20;11.15;;;;;;;2.12;84.41;100037.16;4979535;28;20546;-49
2021/11/30 05:19:08;;;;;;;24.85;10.60;;;;;;;2.12;84.38;100020.50;4975606;28;20398;-47
2021/11/30 05:21:34;;;;;;;22.63;11.25;;;;;;;2.09;84.57;100016.44;4976102;28;20025;-49
2021/11/30 05:24:02;;;;;;;20.98;10.73;;;;;;;2.09;84.64;100007.72;4974194;28;20029;-51
2021/11/30 05:26:28;;;;;;;24.88;11.55;;;;;;;2.07;84.83;99997.34;4976666;28;20540;-48
2021/11/30 05:28:54;;;;;;;23.08;11.50;;;;;;;2.07;84.81;99992.06;4974446;28;20118;-48
2021/11/30 05:31:19;;;;;;;22.50;10.07;;;;;;;2.08;84.85;99990.25;4979170;28;20030;-48
2021/11/30 05:33:47;;;;;;;24.98;11.00;;;;;;;2.08;84.75;99977.03;4979708;28;20612;-49
2021/11/30 05:36:13;;;;;;;26.05;11.60;;;;;;;2.09;85.17;99974.16;4976010;28;20065;-48
2021/11/30 05:38:39;;;;;;;21.95;10.82;;;;;;;2.09;84.75;99968.88;4975174;28;20033;-49
2021/11/30 05:41:05;;;;;;;23.55;11.00;;;;;;;2.07;85.05;99960.34;4972249;28;20030;-48
2021/11/30 05:43:30;;;;;;;22.48;11.45;;;;;;;2.05;85.17;99946.56;4976029;28;20436;-51
2021/11/30 05:45:56;;;;;;;23.90;11.77;;;;;;;2.04;85.85;99947.56;4976729;28;20060;-48
2021/11/30 05:48:21;;;;;;;20.05;11.00;;;;;;;2.06;85.44;99936.78;4973930;28;20484;-49
2021/11/30 05:50:47;;;;;;;24.23;10.35;;;;;;;2.06;85.23;99932.31;4975419;28;20050;-49
2021/11/30 05:53:12;;;;;;;24.45;11.82;;;;;;;2.07;85.19;99922.56;4979208;28;20939;-48
2021/11/30 05:55:38;;;;;;;23.05;11.52;;;;;;;2.07;85.36;99917.28;4981522;28;20145;-49
2021/11/30 05:58:05;;;;;;;23.67;11.38;;;;;;;2.07;85.43;99919.91;4981329;28;20038;-48
2021/11/30 06:00:31;;;;;;;25.27;12.18;;;;;;;2.08;85.46;99908.31;4983804;28;20030;-49
2021/11/30 06:03:06;;;;;;;23.95;11.85;;;;;;;2.10;85.27;99911.56;5027752;22;20041;-81
2021/11/30 06:05:34;;;;;;;24.52;11.48;;;;;;;2.10;85.36;99907.09;5012049;28;20035;-82
2021/11/30 06:08:00;;;;;;;26.13;13.40;;;;;;;2.11;85.45;99898.13;4993121;28;20030;-82
2021/11/30 06:10:27;;;;;;;22.58;11.70;;;;;;;2.11;85.39;99882.28;5010567;28;20045;-82
2021/11/30 06:12:53;;;;;;;26.17;11.15;;;;;;;2.14;85.45;99875.75;4989261;28;20117;-79
2021/11/30 06:15:19;;;;;;;25.08;11.40;;;;;;;2.13;85.37;99859.09;5001427;28;20031;-79
2021/11/30 06:17:45;;;;;;;24.13;11.27;;;;;;;2.13;85.84;99848.50;4990564;28;20036;-78
2021/11/30 06:20:12;;;;;;;24.63;11.90;;;;;;;2.13;85.65;99840.59;4985289;28;20061;-79
2021/11/30 06:22:39;;;;;;;24.65;11.27;;;;;;;2.16;85.67;99838.56;4979852;28;20388;-79
2021/11/30 06:25:06;;;;;;;25.30;11.85;;;;;;;2.16;85.60;99834.09;4979125;28;20948;-78
2021/11/30 06:27:32;;;;;;;28.48;12.75;;;;;;;2.17;85.50;99819.84;4981422;28;20515;-79
2021/11/30 06:29:58;;;;;;;25.35;12.18;;;;;;;2.17;85.65;99814.56;4984918;28;20026;-79
2021/11/30 06:32:24;;;;;;;24.60;11.63;;;;;;;2.16;86.08;99802.38;4995042;28;20066;-79
2021/11/30 06:34:50;;;;;;;22.95;10.70;;;;;;;2.19;86.26;99803.78;4994887;28;20041;-79
2021/11/30 06:37:15;;;;;;;23.90;12.40;;;;;;;2.20;85.71;99789.53;4977081;28;20559;-79
2021/11/30 06:39:41;;;;;;;23.48;11.93;;;;;;;2.19;85.97;99783.44;4986665;28;20022;-79
2021/11/30 06:42:07;;;;;;;21.77;10.88;;;;;;;2.20;85.89;99781.59;4982203;28;20034;-78
2021/11/30 06:44:33;;;;;;;24.35;11.23;;;;;;;2.21;85.72;99770.00;4980837;28;20280;-78
2021/11/30 06:46:59;;;;;;;22.20;11.38;;;;;;;2.23;85.79;99765.31;4979789;28;20110;-78
2021/11/30 06:49:24;;;;;;;21.52;12.05;;;;;;;2.22;86.21;99751.28;4992867;28;20169;-79
2021/11/30 06:51:50;;;;;;;20.95;11.55;;;;;;;2.24;85.76;99740.50;4995793;28;20030;-79
2021/11/30 06:54:15;;;;;;;22.17;10.23;;;;;;;2.23;86.06;99742.34;4980316;28;20027;-79
2021/11/30 06:56:41;;;;;;;20.58;11.55;;;;;;;2.23;85.83;99723.81;4982002;28;20488;-78
2021/11/30 06:59:07;;;;;;;21.65;10.57;;;;;;;2.25;86.25;99718.31;4993007;28;20030;-78
2021/11/30 07:01:34;;;;;;;19.60;10.20;;;;;;;2.26;86.10;99706.72;4995956;28;20117;-79
2021/11/30 07:04:02;;;;;;;21.98;10.23;;;;;;;2.24;86.44;99695.56;4990884;28;20036;-78
2021/11/30 07:11:47;;;;;;;20.17;9.75;;;;;;;2.26;86.16;99675.00;4978013;28;20027;-78
2021/11/30 07:14:13;;;;;;;18.20;8.98;;;;;;;2.26;86.17;99661.78;4981706;28;20030;-79
2021/11/30 07:16:39;;;;;;;16.77;8.73;;;;;;;2.26;86.17;99659.16;4982964;28;20027;-79
2021/11/30 07:19:05;;;;;;;19.15;9.48;;;;;;;2.26;86.35;99656.50;4991123;28;20029;-78
2021/11/30 07:21:32;;;;;;;20.17;10.77;;;;;;;2.26;86.46;99645.94;4976700;28;20051;-79
2021/11/30 07:23:58;;;;;;;17.50;9.23;;;;;;;2.22;86.48;99620.97;4976292;28;20032;-79
2021/11/30 07:26:25;;;;;;;16.85;9.32;;;;;;;2.19;86.61;99608.22;4978163;28;20027;-78
2021/11/30 07:28:51;;;;;;;17.10;10.35;;;;;;;2.20;86.37;99615.13;4975970;28;20031;-79
2021/11/30 07:31:17;;;;;;;18.63;9.57;;;;;;;2.20;86.21;99593.97;4991217;28;20061;-78
2021/11/30 07:33:46;;;;;;;21.05;8.68;;;;;;;2.17;86.43;99587.31;4973436;28;20116;-78
2021/11/30 07:36:14;;;;;;;19.40;8.60;;;;;;;2.16;86.64;99574.31;4977846;28;20054;-79
2021/11/30 07:38:41;;;;;;;18.65;9.45;;;;;;;2.12;86.64;99569.44;4993633;28;20024;-79
2021/11/30 07:41:07;;;;;;;14.90;6.85;;;;;;;2.10;87.17;99582.06;4988995;28;20221;-79
2021/11/30 07:43:34;;;;;;;15.30;7.75;;;;;;;2.14;87.17;99571.84;4975893;28;20034;-79
2021/11/30 07:46:00;;;;;;;16.65;7.65;;;;;;;2.13;87.24;99560.50;4975971;28;20022;-79
2021/11/30 07:48:27;;;;;;;17.30;8.48;;;;;;;2.15;86.60;99564.75;4977619;28;20265;-78
2021/11/30 07:50:54;;;;;;;13.48;7.30;;;;;;;2.16;87.24;99555.81;4982394;28;20039;-78
2021/11/30 07:53:20;;;;;;;14.38;7.68;;;;;;;2.16;87.05;99553.16;4981852;28;20057;-79
2021/11/30 07:55:46;;;;;;;13.38;7.63;;;;;;;2.16;87.19;99540.75;4988405;28;20030;-79
2021/11/30 07:58:12;;;;;;;15.75;7.90;;;;;;;2.20;86.90;99528.72;4979008;28;20037;-79
2021/11/30 08:00:37;;;;;;;13.63;6.60;;;;;;;2.21;87.03;99521.59;4975072;28;20113;-79
2021/11/30 08:03:03;;;;;;;11.52;6.32;;;;;;;2.22;87.04;99507.34;4988346;28;20752;-78
2021/11/30 08:05:30;;;;;;;11.98;6.75;;;;;;;2.20;86.88;99499.63;4990165;28;20026;-78
2021/11/30 08:07:55;;;;;;;12.43;5.97;;;;;;;2.21;87.37;99495.16;4975534;28;20381;-79
2021/11/30 08:10:23;;;;;;;13.52;6.65;;;;;;;2.21;87.22;99493.31;4991843;28;20037;-79
2021/11/30 08:12:49;;;;;;;12.48;6.13;;;;;;;2.23;87.29;99482.53;4974477;28;20026;-78
2021/11/30 08:15:16;;;;;;;11.27;6.30;;;;;;;2.23;87.40;99477.25;4975706;28;20086;-78
2021/11/30 08:17:41;;;;;;;9.82;5.30;;;;;;;2.21;87.49;99471.38;4975686;28;20034;-79
2021/11/30 08:20:08;;;;;;;11.45;5.75;;;;;;;2.21;87.71;99455.53;4977396;28;20026;-78
2021/11/30 08:22:35;;;;;;;9.25;6.15;;;;;;;2.21;87.36;99458.16;4988304;28;20023;-78
2021/11/30 08:25:01;;;;;;;9.60;5.32;;;;;;;2.23;87.23;99442.88;4978236;28;20030;-79
2021/11/30 08:27:27;;;;;;;9.75;5.75;;;;;;;2.23;87.40;99437.59;4994140;28;20092;-79
2021/11/30 08:29:52;;;;;;;8.63;4.50;;;;;;;2.22;87.44;99422.78;4979777;28;20033;-78
2021/11/30 08:32:22;;;;;;;8.23;4.50;;;;;;;2.25;87.59;99432.91;4991417;28;20494;-79
2021/11/30 08:34:48;;;;;;;7.90;4.40;;;;;;;2.26;87.43;99424.75;4994549;28;20038;-78
2021/11/30 08:37:14;;;;;;;8.52;4.30;;;;;;;2.26;87.39;99414.16;4990242;28;20041;-79
2021/11/30 08:39:39;;;;;;;8.80;5.20;;;;;;;2.28;87.31;99406.81;4977968;28;20030;-79
2021/11/30 08:42:08;;;;;;;6.03;4.10;;;;;;;2.29;87.48;99402.34;4979268;28;20030;-79
2021/11/30 08:44:34;;;;;;;6.25;3.63;;;;;;;2.31;87.48;99397.63;4990609;28;20405;-79
2021/11/30 08:47:00;;;;;;;8.02;3.88;;;;;;;2.32;87.61;99397.41;4993547;28;20030;-79
2021/11/30 08:49:27;;;;;;;6.35;3.50;;;;;;;2.34;87.58;99394.56;4976163;28;20036;-79
2021/11/30 08:51:56;;;;;;;6.22;3.60;;;;;;;2.37;87.41;99365.81;4976272;28;20042;-79
2021/11/30 08:54:21;;;;;;;6.03;3.85;;;;;;;2.38;87.53;99374.56;4974310;28;20034;-79
2021/11/30 08:56:47;;;;;;;6.55;3.67;;;;;;;2.38;87.85;99388.56;4989616;28;20037;-79
2021/11/30 08:59:12;;;;;;;4.93;3.00;;;;;;;2.41;87.64;99372.25;4983487;28;20042;-79
2021/11/30 09:01:42;;;;;;;7.28;3.50;;;;;;;2.42;87.66;99346.63;4991864;28;20057;-79
2021/11/30 09:04:09;;;;;;;6.47;3.42;;;;;;;2.44;87.68;99363.06;4975609;28;20543;-79
2021/11/30 09:06:34;;;;;;;5.80;3.40;;;;;;;2.44;87.59;99357.78;4973070;28;20037;-79
2021/11/30 09:09:02;;;;;;;5.78;3.92;;;;;;;2.48;87.56;99344.91;4990597;28;20030;-79
2021/11/30 09:11:28;;;;;;;5.50;3.10;;;;;;;2.48;87.81;99350.97;4976231;28;20026;-79
2021/11/30 09:13:53;;;;;;;5.10;3.15;;;;;;;2.50;87.90;99348.91;4973595;28;20096;-79
2021/11/30 09:16:21;;;;;;;4.10;2.83;;;;;;;2.52;87.90;99346.06;4990244;28;20035;-79
2021/11/30 09:18:47;;;;;;;3.55;2.65;;;;;;;2.54;88.24;99347.44;4989830;28;20472;-79
2021/11/30 09:21:13;;;;;;;4.88;2.95;;;;;;;2.57;87.99;99336.41;4991785;28;20035;-79
2021/11/30 09:23:38;;;;;;;4.95;3.00;;;;;;;2.57;87.76;99336.41;4991829;28;20110;-79
2021/11/30 09:26:04;;;;;;;4.47;2.85;;;;;;;2.59;87.84;99315.81;4970557;28;20043;-79
2021/11/30 09:28:29;;;;;;;4.88;2.35;;;;;;;2.62;87.99;99312.72;4988160;28;20031;-78
2021/11/30 09:30:55;;;;;;;4.82;2.42;;;;;;;2.65;88.07;99300.88;4991427;28;20031;-79
2021/11/30 09:33:20;;;;;;;3.28;2.05;;;;;;;2.68;87.72;99284.53;4974994;28;20030;-78
2021/11/30 09:35:46;;;;;;;2.85;2.05;;;;;;;2.71;87.72;99303.41;4987415;28;20397;-79
2021/11/30 09:38:11;;;;;;;5.68;2.40;;;;;;;2.75;87.68;99297.66;4990560;28;20454;-79
2021/11/30 09:40:40;;;;;;;2.90;1.90;;;;;;;2.76;87.67;99286.84;4972652;28;20038;-79
2021/11/30 09:43:07;;;;;;;3.17;1.80;;;;;;;2.78;88.17;99289.25;4990097;28;20030;-79
2021/11/30 09:45:37;;;;;;;2.95;1.90;;;;;;;2.81;88.04;99280.84;4981619;28;20053;-79
2021/11/30 09:48:03;;;;;;;2.10;1.75;;;;;;;2.82;87.80;99279.78;4976616;28;20602;-79
2021/11/30 09:50:29;;;;;;;2.92;1.70;;;;;;;2.84;87.59;99283.81;4980746;28;20043;-79
2021/11/30 09:52:56;;;;;;;2.33;1.60;;;;;;;2.87;87.76;99290.47;4980792;28;20026;-79
2021/11/30 09:55:23;;;;;;;2.35;1.60;;;;;;;2.88;87.89;99270.94;4976620;28;20071;-79
2021/11/30 09:57:50;;;;;;;2.33;1.55;;;;;;;2.91;87.78;99270.47;4972875;28;20088;-79
2021/11/30 10:00:17;;;;;;;2.88;1.60;;;;;;;2.95;87.91;99274.25;4989533;28;20039;-79
2021/11/30 10:02:43;;;;;;;2.50;1.40;;;;;;;2.94;87.95;99267.34;4988199;28;20093;-79
2021/11/30 10:05:09;;;;;;;2.78;1.70;;;;;;;2.96;87.86;99265.28;4980712;28;20269;-79
2021/11/30 10:07:43;;;;;;;1.73;1.30;;;;;;;2.96;87.73;99260.78;4971803;28;20030;-79
2021/11/30 10:10:19;;;;;;;2.33;1.60;;;;;;;2.96;87.63;99254.69;4976050;28;20481;-79
2021/11/30 10:12:53;;;;;;;3.03;1.73;;;;;;;2.96;87.80;99255.50;4987611;28;20039;-79
2021/11/30 10:15:19;;;;;;;3.25;2.00;;;;;;;3.01;87.70;99265.38;4972909;28;20030;-79
2021/11/30 10:17:44;;;;;;;4.38;2.50;;;;;;;3.03;87.83;99268.59;4974004;28;20484;-79
2021/11/30 10:20:14;;;;;;;6.10;3.15;;;;;;;3.06;87.79;99262.84;4974065;28;20023;-79
2021/11/30 10:22:46;;;;;;;3.63;2.22;;;;;;;3.06;87.93;99265.50;4978601;28;20104;-79
2021/11/30 10:25:34;;;;;;;2.67;2.03;;;;;;;3.05;87.77;99258.56;4988866;28;20446;-79
2021/11/30 10:28:04;;;;;;;2.75;1.90;;;;;;;3.13;88.04;99260.06;4991793;28;20101;-79
2021/11/30 10:30:33;;;;;;;2.58;1.75;;;;;;;3.14;87.85;99236.00;4974531;28;20051;-79
2021/11/30 10:33:05;;;;;;;2.35;1.50;;;;;;;3.16;88.18;99239.22;4992227;28;20026;-78
2021/11/30 10:35:31;;;;;;;2.00;1.52;;;;;;;3.20;88.11;99239.53;4989601;28;20496;-79
2021/11/30 10:37:59;;;;;;;2.47;1.63;;;;;;;3.22;88.28;99227.66;4993960;28;20126;-79
2021/11/30 10:40:28;;;;;;;3.40;2.00;;;;;;;3.27;87.98;99211.09;4994065;28;20018;-78
2021/11/30 10:42:59;;;;;;;1.85;1.42;;;;;;;3.28;87.95;99213.50;4979705;28;21036;-79
2021/11/30 10:45:29;;;;;;;1.33;1.08;;;;;;;3.30;88.09;99203.47;4980130;28;20408;-79
2021/11/30 10:48:14;;;;;;;2.25;1.40;;;;;;;3.29;88.08;99199.22;4991779;28;20369;-79
2021/11/30 10:50:56;;;;;;;1.38;1.27;;;;;;;3.32;88.35;99193.44;4980900;28;20460;-79
2021/11/30 10:53:30;;;;;;;1.65;1.48;;;;;;;3.39;88.51;99193.28;4991380;28;20210;-79
2021/11/30 10:56:01;;;;;;;1.30;1.20;;;;;;;3.42;88.27;99184.91;4985020;28;20473;-79
2021/11/30 10:58:42;;;;;;;1.48;1.10;;;;;;;3.45;88.59;99183.59;4977556;28;20034;-79
2021/11/30 11:01:12;;;;;;;1.35;1.02;;;;;;;3.49;88.70;99179.44;4980072;28;20037;-79
2021/11/30 11:03:38;;;;;;;2.00;1.30;;;;;;;3.54;88.95;99190.09;4975970;28;20468;-79
2021/11/30 11:08:49;;;;;;;1.95;1.20;;;;;;;3.62;88.44;99179.13;4979523;28;20125;-78
2021/11/30 11:11:17;;;;;;;1.23;1.00;;;;;;;3.66;88.56;99167.00;4991644;28;20536;-79
2021/11/30 11:13:43;;;;;;;1.33;1.17;;;;;;;3.71;88.56;99168.91;4992015;28;20038;-79
2021/11/30 11:16:37;;;;;;;2.75;1.20;;;;;;;3.73;88.35;99164.97;4978730;28;20291;-79
2021/11/30 11:19:05;;;;;;;0.70;0.70;;;;;;;3.78;88.55;99166.94;4978867;28;20038;-79
2021/11/30 11:21:36;;;;;;;1.17;0.75;;;;;;;3.81;88.34;99164.59;4990573;28;20036;-79
2021/11/30 11:24:12;;;;;;;0.80;0.80;;;;;;;3.85;88.19;99152.44;4991957;28;20396;-79
2021/11/30 11:26:51;;;;;;;1.67;0.70;;;;;;;3.91;88.19;99146.16;4980133;28;20022;-79
2021/11/30 11:29:22;;;;;;;0.50;0.50;;;;;;;3.93;88.22;99149.38;4977093;28;20373;-79
2021/11/30 11:31:51;;;;;;;0.88;0.70;;;;;;;3.98;88.03;99148.66;4992177;28;20229;-79
2021/11/30 11:34:19;;;;;;;3.30;1.02;;;;;;;4.02;87.79;99152.44;4975650;28;20206;-79
2021/11/30 11:36:47;;;;;;;3.20;0.80;;;;;;;4.06;87.97;99131.53;4994930;28;20070;-78
2021/11/30 11:39:15;;;;;;;3.53;0.85;;;;;;;4.10;87.90;99133.44;4985675;28;20030;-78
2021/11/30 11:41:41;;;;;;;3.50;0.90;;;;;;;4.13;87.84;99140.94;4994477;28;20030;-79
2021/11/30 11:44:06;;;;;;;2.20;0.65;;;;;;;4.16;87.69;99131.69;4989206;28;20088;-79
2021/11/30 11:46:35;;;;;;;4.60;0.70;;;;;;;4.19;87.54;99129.34;4991779;28;20037;-79